Time;durP1;ratioP1;P1;durP2;ratioP2;P2;SDS_P1;SDS_P2;PMS_P1;PMS_P2;Temp;Humidity;BMP_temperature;BMP_pressure;BME280_temperature;BME280_humidity;BME280_pressure;Samples;Min_cycle;Max_cycle;Signal;HPM_P1;HPM_P2
2023/05/17 00:00:26;;;;;;;37.30;30.17;;;;;;;;;;4971835;28;20105;-78
2023/05/17 00:02:51;;;;;;;36.97;32.00;;;;;;;;;;4967854;28;20126;-77
2023/05/17 00:05:16;;;;;;;36.75;32.88;;;;;;;;;;4976695;28;20066;-78
2023/05/17 00:07:42;;;;;;;36.38;32.28;;;;;;;;;;4959356;28;20034;-76
2023/05/17 00:10:07;;;;;;;37.25;31.40;;;;;;;;;;4974157;28;20511;-77
2023/05/17 00:12:33;;;;;;;37.35;31.10;;;;;;;;;;4960438;28;20023;-78
2023/05/17 00:14:58;;;;;;;37.67;31.10;;;;;;;;;;4966884;28;20354;-78
2023/05/17 00:17:24;;;;;;;37.70;32.63;;;;;;;;;;4972373;28;20587;-80
2023/05/17 00:19:50;;;;;;;36.67;30.55;;;;;;;;;;4974477;28;20080;-80
2023/05/17 00:22:15;;;;;;;37.33;32.97;;;;;;;;;;4970668;28;20109;-78
2023/05/17 00:24:40;;;;;;;43.75;33.88;;;;;;;;;;4962974;28;20039;-76
2023/05/17 00:27:06;;;;;;;48.03;37.80;;;;;;;;;;4965388;28;20122;-78
2023/05/17 00:29:31;;;;;;;61.75;45.80;;;;;;;;;;4962903;28;20054;-77
2023/05/17 00:31:57;;;;;;;60.50;45.75;;;;;;;;;;4962887;28;20122;-80
2023/05/17 00:34:22;;;;;;;52.45;39.20;;;;;;;;;;4964669;28;20135;-80
2023/05/17 00:36:47;;;;;;;56.38;40.88;;;;;;;;;;4970226;28;20027;-78
2023/05/17 00:39:13;;;;;;;55.40;38.83;;;;;;;;;;4973236;28;20354;-78
2023/05/17 00:41:38;;;;;;;62.95;41.75;;;;;;;;;;4970294;28;20069;-79
2023/05/17 00:44:03;;;;;;;61.50;41.40;;;;;;;;;;4964679;28;20061;-80
2023/05/17 00:46:29;;;;;;;70.32;41.80;;;;;;;;;;4968952;28;20104;-79
2023/05/17 00:48:55;;;;;;;68.78;46.47;;;;;;;;;;4964769;28;20027;-79
2023/05/17 00:51:20;;;;;;;62.40;46.70;;;;;;;;;;4968874;28;20847;-79
2023/05/17 00:53:46;;;;;;;71.47;46.40;;;;;;;;;;4974070;28;20027;-80
2023/05/17 00:56:11;;;;;;;66.78;43.83;;;;;;;;;;4971419;28;20096;-79
2023/05/17 00:58:37;;;;;;;64.32;43.40;;;;;;;;;;4968358;28;20069;-78
2023/05/17 01:01:02;;;;;;;76.38;47.45;;;;;;;;;;4970947;28;20130;-78
2023/05/17 01:03:28;;;;;;;66.07;44.58;;;;;;;;;;4957925;28;20126;-78
2023/05/17 01:05:54;;;;;;;62.60;44.45;;;;;;;;;;4967530;28;20441;-80
2023/05/17 01:08:19;;;;;;;73.93;46.15;;;;;;;;;;4971316;28;20033;-78
2023/05/17 01:10:47;;;;;;;70.13;43.38;;;;;;;;;;4971783;28;20098;-80
2023/05/17 01:13:23;;;;;;;59.47;42.33;;;;;;;;;;4958874;28;20057;-79
2023/05/17 01:16:04;;;;;;;68.80;44.22;;;;;;;;;;4970824;28;20080;-79
2023/05/17 01:18:35;;;;;;;62.00;44.63;;;;;;;;;;4973718;28;20087;-78
2023/05/17 01:21:00;;;;;;;68.10;44.90;;;;;;;;;;4971118;28;20072;-78
2023/05/17 01:23:47;;;;;;;81.32;46.53;;;;;;;;;;4963444;28;20061;-80
2023/05/17 01:26:15;;;;;;;68.00;45.97;;;;;;;;;;4972398;28;20015;-75
2023/05/17 01:28:42;;;;;;;66.40;46.67;;;;;;;;;;4972010;28;20034;-76
2023/05/17 01:31:10;;;;;;;72.68;49.88;;;;;;;;;;4974958;28;20434;-79
2023/05/17 01:33:35;;;;;;;67.05;44.83;;;;;;;;;;4972965;28;20480;-79
2023/05/17 01:36:00;;;;;;;61.47;45.25;;;;;;;;;;4970627;28;20027;-78
2023/05/17 01:38:26;;;;;;;61.80;44.40;;;;;;;;;;4966046;28;20022;-81
2023/05/17 01:41:04;;;;;;;60.70;42.80;;;;;;;;;;4961701;28;20726;-78
2023/05/17 01:43:41;;;;;;;58.83;41.47;;;;;;;;;;4963846;28;20035;-78
2023/05/17 01:46:25;;;;;;;58.60;41.55;;;;;;;;;;4970722;28;20095;-78
2023/05/17 01:49:05;;;;;;;53.03;40.45;;;;;;;;;;4971175;28;20023;-79
2023/05/17 01:51:33;;;;;;;53.45;39.30;;;;;;;;;;4973480;28;20026;-79
2023/05/17 01:54:01;;;;;;;49.25;38.75;;;;;;;;;;4973658;28;20060;-80
2023/05/17 01:56:27;;;;;;;49.60;37.58;;;;;;;;;;4969423;28;20692;-78
2023/05/17 01:58:55;;;;;;;42.25;34.80;;;;;;;;;;4964079;28;20022;-78
2023/05/17 02:01:21;;;;;;;42.17;34.30;;;;;;;;;;4968961;28;20034;-80
2023/05/17 02:03:48;;;;;;;45.33;36.05;;;;;;;;;;4969014;28;20061;-81
2023/05/17 02:06:13;;;;;;;42.38;34.45;;;;;;;;;;4969197;28;20037;-78
2023/05/17 02:08:39;;;;;;;37.72;33.05;;;;;;;;;;4972418;28;20026;-77
2023/05/17 02:11:04;;;;;;;40.25;33.67;;;;;;;;;;4971831;28;20038;-78
2023/05/17 02:13:30;;;;;;;41.92;33.95;;;;;;;;;;4972641;28;20452;-77
2023/05/17 02:15:58;;;;;;;41.78;34.22;;;;;;;;;;4971944;28;20027;-80
2023/05/17 02:18:25;;;;;;;42.35;33.78;;;;;;;;;;4971708;28;20038;-78
2023/05/17 02:20:50;;;;;;;37.88;32.53;;;;;;;;;;4972430;28;20623;-77
2023/05/17 02:23:16;;;;;;;37.47;33.00;;;;;;;;;;4972575;28;20177;-78
2023/05/17 02:25:41;;;;;;;51.17;33.45;;;;;;;;;;4974475;28;20044;-78
2023/05/17 02:28:08;;;;;;;43.30;32.78;;;;;;;;;;4968987;28;20030;-78
2023/05/17 02:30:33;;;;;;;40.95;34.30;;;;;;;;;;4971948;28;20031;-77
2023/05/17 02:32:58;;;;;;;40.95;33.00;;;;;;;;;;4968986;28;20027;-77
2023/05/17 02:35:24;;;;;;;39.65;32.22;;;;;;;;;;4974559;28;20018;-77
2023/05/17 02:37:49;;;;;;;38.92;31.73;;;;;;;;;;4969904;28;20445;-79
2023/05/17 02:40:15;;;;;;;37.53;30.63;;;;;;;;;;4974109;28;20030;-78
2023/05/17 02:42:40;;;;;;;36.58;30.92;;;;;;;;;;4966979;28;20103;-79
2023/05/17 02:45:06;;;;;;;39.03;31.67;;;;;;;;;;4971996;28;20043;-77
2023/05/17 02:47:32;;;;;;;39.97;32.20;;;;;;;;;;4971377;28;20086;-79
2023/05/17 02:49:58;;;;;;;39.83;31.98;;;;;;;;;;4972311;28;20435;-78
2023/05/17 02:52:23;;;;;;;35.78;30.27;;;;;;;;;;4963218;28;20027;-79
2023/05/17 02:54:48;;;;;;;39.30;31.55;;;;;;;;;;4960909;28;20042;-78
2023/05/17 02:57:14;;;;;;;34.67;28.70;;;;;;;;;;4969982;28;20587;-76
2023/05/17 02:59:39;;;;;;;34.55;29.35;;;;;;;;;;4977008;28;20022;-78
2023/05/17 03:02:05;;;;;;;31.08;27.73;;;;;;;;;;4958433;28;21127;-77
2023/05/17 03:04:32;;;;;;;30.85;27.55;;;;;;;;;;4972473;28;20039;-77
2023/05/17 03:06:57;;;;;;;34.40;29.65;;;;;;;;;;4968680;28;20056;-80
2023/05/17 03:09:22;;;;;;;32.70;26.67;;;;;;;;;;4973796;28;20441;-77
2023/05/17 03:11:48;;;;;;;29.80;26.58;;;;;;;;;;4965171;28;20058;-79
2023/05/17 03:14:13;;;;;;;28.95;25.65;;;;;;;;;;4966618;28;20030;-76
2023/05/17 03:16:38;;;;;;;34.58;26.35;;;;;;;;;;4957431;28;20026;-76
2023/05/17 03:19:04;;;;;;;30.15;26.52;;;;;;;;;;4970918;28;20040;-77
2023/05/17 03:21:29;;;;;;;28.77;25.00;;;;;;;;;;4966616;28;20062;-79
2023/05/17 03:23:55;;;;;;;31.35;26.50;;;;;;;;;;4972252;28;20045;-82
2023/05/17 03:26:20;;;;;;;29.25;26.23;;;;;;;;;;4971955;28;20125;-79
2023/05/17 03:28:45;;;;;;;27.35;24.38;;;;;;;;;;4986423;28;20060;-78
2023/05/17 03:31:11;;;;;;;28.10;25.08;;;;;;;;;;4970696;28;20031;-80
2023/05/17 03:33:36;;;;;;;27.83;23.02;;;;;;;;;;4970416;28;20026;-79
2023/05/17 03:36:02;;;;;;;25.90;23.33;;;;;;;;;;4966704;28;20446;-78
2023/05/17 03:38:27;;;;;;;25.55;22.85;;;;;;;;;;4969625;28;20031;-79
2023/05/17 03:40:53;;;;;;;31.88;25.83;;;;;;;;;;4960998;28;20033;-78
2023/05/17 03:43:18;;;;;;;27.48;24.65;;;;;;;;;;4974622;28;20030;-78
2023/05/17 03:45:44;;;;;;;30.65;24.15;;;;;;;;;;4973305;28;21250;-78
2023/05/17 03:48:09;;;;;;;24.70;22.10;;;;;;;;;;4960024;28;20552;-76
2023/05/17 03:50:35;;;;;;;26.88;24.08;;;;;;;;;;4976026;28;20041;-78
2023/05/17 03:53:00;;;;;;;27.90;25.02;;;;;;;;;;4973355;28;20030;-79
2023/05/17 03:55:25;;;;;;;28.15;24.83;;;;;;;;;;4966355;28;20452;-79
2023/05/17 03:57:51;;;;;;;35.78;31.85;;;;;;;;;;4954691;28;20045;-79
2023/05/17 04:00:20;;;;;;;34.22;30.63;;;;;;;;;;4954548;28;20027;-78
2023/05/17 04:02:46;;;;;;;27.77;24.77;;;;;;;;;;4955067;28;20018;-77
2023/05/17 04:05:12;;;;;;;29.45;26.45;;;;;;;;;;4950177;28;20167;-78
2023/05/17 04:07:37;;;;;;;29.50;25.98;;;;;;;;;;4948831;28;20109;-77
2023/05/17 04:10:03;;;;;;;25.20;22.52;;;;;;;;;;4955361;28;20027;-77
2023/05/17 04:12:28;;;;;;;24.13;21.60;;;;;;;;;;4952168;28;20527;-76
2023/05/17 04:14:54;;;;;;;24.85;22.35;;;;;;;;;;4965302;28;20072;-79
2023/05/17 04:17:19;;;;;;;34.55;24.70;;;;;;;;;;4970914;28;20046;-79
2023/05/17 04:19:45;;;;;;;26.30;23.58;;;;;;;;;;4974928;28;20027;-79
2023/05/17 04:22:10;;;;;;;24.02;21.65;;;;;;;;;;4971801;28;20023;-82
2023/05/17 04:24:35;;;;;;;25.10;22.60;;;;;;;;;;4972045;28;20580;-81
2023/05/17 04:27:04;;;;;;;24.35;21.80;;;;;;;;;;4973205;28;20081;-79
2023/05/17 04:29:29;;;;;;;33.35;26.88;;;;;;;;;;4957865;28;20089;-77
2023/05/17 04:31:55;;;;;;;29.63;24.13;;;;;;;;;;4958485;28;20043;-77
2023/05/17 04:34:22;;;;;;;28.10;24.25;;;;;;;;;;4973341;28;20468;-78
2023/05/17 04:36:47;;;;;;;27.17;23.42;;;;;;;;;;4969795;28;20567;-78
2023/05/17 04:39:13;;;;;;;26.17;23.33;;;;;;;;;;4961126;28;20027;-78
2023/05/17 04:41:38;;;;;;;29.00;23.95;;;;;;;;;;4961073;28;20057;-79
2023/05/17 04:44:04;;;;;;;30.48;22.92;;;;;;;;;;4968238;28;20041;-79
2023/05/17 04:46:30;;;;;;;32.72;25.13;;;;;;;;;;4968203;28;20055;-81
2023/05/17 04:48:56;;;;;;;32.17;26.75;;;;;;;;;;4971150;28;20106;-81
2023/05/17 04:51:22;;;;;;;33.65;26.73;;;;;;;;;;4971406;28;20114;-79
2023/05/17 04:53:47;;;;;;;32.05;26.23;;;;;;;;;;4962910;28;20086;-78
2023/05/17 04:56:13;;;;;;;36.55;30.90;;;;;;;;;;4958192;28;20038;-76
2023/05/17 04:58:38;;;;;;;48.78;35.67;;;;;;;;;;4966743;28;20030;-78
2023/05/17 05:01:04;;;;;;;46.20;32.97;;;;;;;;;;4973666;28;20083;-75
2023/05/17 05:03:30;;;;;;;50.15;30.77;;;;;;;;;;4968420;28;20122;-75
2023/05/17 05:05:55;;;;;;;48.05;32.75;;;;;;;;;;4975079;28;20038;-77
2023/05/17 05:08:20;;;;;;;51.58;30.73;;;;;;;;;;4974800;28;20030;-77
2023/05/17 05:10:46;;;;;;;50.72;31.17;;;;;;;;;;4973884;28;20095;-76
2023/05/17 05:13:11;;;;;;;50.28;33.90;;;;;;;;;;4971553;28;20042;-76
2023/05/17 05:15:36;;;;;;;51.38;32.08;;;;;;;;;;4974657;28;20362;-75
2023/05/17 05:18:02;;;;;;;52.45;34.30;;;;;;;;;;4973310;28;20077;-76
2023/05/17 05:20:27;;;;;;;60.88;38.70;;;;;;;;;;4960568;28;20022;-77
2023/05/17 05:22:53;;;;;;;77.47;56.80;;;;;;;;;;4955052;28;20042;-77
2023/05/17 05:25:18;;;;;;;66.13;46.70;;;;;;;;;;4968577;28;20034;-77
2023/05/17 05:27:43;;;;;;;74.07;52.05;;;;;;;;;;4971225;28;20022;-78
2023/05/17 05:30:09;;;;;;;63.13;44.83;;;;;;;;;;4964810;28;20022;-79
2023/05/17 05:32:36;;;;;;;51.20;38.20;;;;;;;;;;4956915;28;20023;-78
2023/05/17 05:35:02;;;;;;;50.35;34.70;;;;;;;;;;4973992;28;20034;-77
2023/05/17 05:37:27;;;;;;;45.80;34.00;;;;;;;;;;4971590;28;20038;-78
2023/05/17 05:39:53;;;;;;;40.20;30.45;;;;;;;;;;4961761;28;20026;-76
2023/05/17 05:42:18;;;;;;;81.40;62.05;;;;;;;;;;4967807;28;20458;-78
2023/05/17 05:44:43;;;;;;;52.63;40.63;;;;;;;;;;4956989;28;20084;-78
2023/05/17 05:47:09;;;;;;;55.72;44.42;;;;;;;;;;4963744;28;20468;-78
2023/05/17 05:49:34;;;;;;;62.38;47.97;;;;;;;;;;4975403;28;20033;-78
2023/05/17 05:52:00;;;;;;;47.38;40.60;;;;;;;;;;4963216;28;20062;-77
2023/05/17 05:54:25;;;;;;;43.80;36.45;;;;;;;;;;4963830;28;20038;-77
2023/05/17 05:56:50;;;;;;;63.85;53.10;;;;;;;;;;4969996;28;20039;-77
2023/05/17 05:59:16;;;;;;;54.45;40.35;;;;;;;;;;4962051;28;20030;-79
2023/05/17 06:01:42;;;;;;;45.22;34.38;;;;;;;;;;4969524;28;20049;-78
2023/05/17 06:04:08;;;;;;;56.58;35.03;;;;;;;;;;4969299;28;20507;-80
2023/05/17 06:06:33;;;;;;;54.33;44.65;;;;;;;;;;4970021;28;20030;-78
2023/05/17 06:08:59;;;;;;;61.70;53.13;;;;;;;;;;4969365;28;20026;-77
2023/05/17 06:11:24;;;;;;;61.33;50.53;;;;;;;;;;4971137;28;20126;-76
2023/05/17 06:13:50;;;;;;;59.20;48.22;;;;;;;;;;4974751;28;20550;-76
2023/05/17 06:16:15;;;;;;;48.03;37.53;;;;;;;;;;4969721;28;20034;-77
2023/05/17 06:18:40;;;;;;;23.67;21.17;;;;;;;;;;4971202;28;20038;-78
2023/05/17 06:21:06;;;;;;;17.85;15.93;;;;;;;;;;4971041;28;20437;-77
2023/05/17 06:23:31;;;;;;;10.18;9.27;;;;;;;;;;4969869;28;20360;-77
2023/05/17 06:25:56;;;;;;;8.20;7.35;;;;;;;;;;4971330;28;20031;-77
2023/05/17 06:28:22;;;;;;;7.47;6.78;;;;;;;;;;4972218;28;20058;-77
2023/05/17 06:30:47;;;;;;;7.65;6.80;;;;;;;;;;4970646;28;20046;-77
2023/05/17 06:33:12;;;;;;;7.55;6.90;;;;;;;;;;4972809;28;20031;-77
2023/05/17 06:35:38;;;;;;;6.47;5.88;;;;;;;;;;4975189;28;20438;-78
2023/05/17 06:38:03;;;;;;;6.40;5.72;;;;;;;;;;4968850;28;20121;-77
2023/05/17 06:40:29;;;;;;;7.03;6.30;;;;;;;;;;4974769;28;20076;-78
2023/05/17 06:42:54;;;;;;;6.88;6.38;;;;;;;;;;4970675;28;20059;-78
2023/05/17 06:45:20;;;;;;;7.05;6.45;;;;;;;;;;4974186;28;20052;-77
2023/05/17 06:47:46;;;;;;;8.20;6.65;;;;;;;;;;4970382;28;20022;-77
2023/05/17 06:50:11;;;;;;;6.88;6.20;;;;;;;;;;4974513;28;20037;-77
2023/05/17 06:52:36;;;;;;;8.07;6.63;;;;;;;;;;4968346;28;20073;-77
2023/05/17 06:55:02;;;;;;;8.27;7.47;;;;;;;;;;4973405;28;20066;-77
2023/05/17 06:57:27;;;;;;;9.18;8.25;;;;;;;;;;4966234;28;20357;-77
2023/05/17 06:59:52;;;;;;;9.38;8.48;;;;;;;;;;4973178;28;20482;-77
2023/05/17 07:02:18;;;;;;;10.25;9.35;;;;;;;;;;4969576;28;20034;-77
2023/05/17 07:04:43;;;;;;;10.48;9.55;;;;;;;;;;4972504;28;20035;-78
2023/05/17 07:07:10;;;;;;;15.82;10.25;;;;;;;;;;4969042;28;20034;-78
2023/05/17 07:09:35;;;;;;;12.88;11.52;;;;;;;;;;4972162;28;20455;-78
2023/05/17 07:12:01;;;;;;;14.05;12.25;;;;;;;;;;4971534;28;20026;-78
2023/05/17 07:14:26;;;;;;;14.57;13.05;;;;;;;;;;4973972;28;20507;-78
2023/05/17 07:16:52;;;;;;;14.85;13.52;;;;;;;;;;4973062;28;20381;-78
2023/05/17 07:19:17;;;;;;;14.65;13.25;;;;;;;;;;4973896;28;20034;-78
2023/05/17 07:21:42;;;;;;;13.07;11.88;;;;;;;;;;4974676;28;20049;-78
2023/05/17 07:24:08;;;;;;;13.07;11.80;;;;;;;;;;4975838;28;20026;-78
2023/05/17 07:26:33;;;;;;;12.85;11.55;;;;;;;;;;4969392;28;20119;-77
2023/05/17 07:28:59;;;;;;;12.60;11.40;;;;;;;;;;4973756;28;20054;-78
2023/05/17 07:31:25;;;;;;;13.50;10.07;;;;;;;;;;4970058;28;20038;-77
2023/05/17 07:33:50;;;;;;;11.57;10.45;;;;;;;;;;4973378;28;20026;-78
2023/05/17 07:36:15;;;;;;;10.43;9.55;;;;;;;;;;4973679;28;20113;-78
2023/05/17 07:38:41;;;;;;;9.93;9.07;;;;;;;;;;4974027;28;20032;-76
2023/05/17 07:41:08;;;;;;;10.13;9.18;;;;;;;;;;4973587;28;20298;-77
2023/05/17 07:43:36;;;;;;;10.38;9.43;;;;;;;;;;4974527;28;20495;-77
2023/05/17 07:46:02;;;;;;;9.82;8.82;;;;;;;;;;4974960;28;20066;-78
2023/05/17 07:48:27;;;;;;;9.25;8.45;;;;;;;;;;4988949;28;20069;-79
2023/05/17 07:50:53;;;;;;;9.50;8.60;;;;;;;;;;4972340;28;20504;-77
2023/05/17 07:53:18;;;;;;;8.90;7.50;;;;;;;;;;4972041;28;20141;-77
2023/05/17 07:55:45;;;;;;;9.95;8.85;;;;;;;;;;4974913;28;20030;-77
2023/05/17 07:58:10;;;;;;;18.63;10.02;;;;;;;;;;4974181;28;20425;-81
2023/05/17 08:00:36;;;;;;;10.38;9.38;;;;;;;;;;4976517;28;20026;-77
2023/05/17 08:03:01;;;;;;;9.40;8.55;;;;;;;;;;4971697;28;20029;-78
2023/05/17 08:05:27;;;;;;;9.25;8.38;;;;;;;;;;4977372;28;20037;-75
2023/05/17 08:07:52;;;;;;;8.57;7.88;;;;;;;;;;4973810;28;20092;-76
2023/05/17 08:10:18;;;;;;;7.97;7.18;;;;;;;;;;4976475;28;20459;-77
2023/05/17 08:12:43;;;;;;;8.02;7.32;;;;;;;;;;4973877;28;20030;-78
2023/05/17 08:15:09;;;;;;;7.93;7.20;;;;;;;;;;4974146;28;20420;-78
2023/05/17 08:17:34;;;;;;;7.53;6.72;;;;;;;;;;4971827;28;20029;-77
2023/05/17 08:20:00;;;;;;;8.95;6.50;;;;;;;;;;4975114;28;20505;-79
2023/05/17 08:22:26;;;;;;;7.38;6.68;;;;;;;;;;4966486;28;20065;-76
2023/05/17 08:24:51;;;;;;;7.07;6.38;;;;;;;;;;4971763;28;20066;-76
2023/05/17 08:27:17;;;;;;;7.45;6.75;;;;;;;;;;4973233;28;20061;-76
2023/05/17 08:29:42;;;;;;;7.82;7.13;;;;;;;;;;4971468;28;20034;-77
2023/05/17 08:32:08;;;;;;;7.75;7.05;;;;;;;;;;4972361;28;20113;-75
2023/05/17 08:34:33;;;;;;;7.57;6.85;;;;;;;;;;4974208;28;20086;-76
2023/05/17 08:36:58;;;;;;;8.32;7.53;;;;;;;;;;4968999;28;20077;-75
2023/05/17 08:39:24;;;;;;;7.80;7.10;;;;;;;;;;4974144;28;20460;-78
2023/05/17 08:41:49;;;;;;;8.00;7.20;;;;;;;;;;4969183;28;20051;-76
2023/05/17 08:44:18;;;;;;;7.68;6.97;;;;;;;;;;4975118;28;20402;-79
2023/05/17 08:46:48;;;;;;;7.10;6.60;;;;;;;;;;4970639;28;20441;-77
2023/05/17 08:49:14;;;;;;;7.57;6.40;;;;;;;;;;4971716;28;20260;-76
2023/05/17 08:51:41;;;;;;;6.88;6.28;;;;;;;;;;4973327;28;20034;-76
2023/05/17 08:54:07;;;;;;;8.02;6.93;;;;;;;;;;4970317;28;20085;-76
2023/05/17 08:56:34;;;;;;;7.00;6.50;;;;;;;;;;4969716;28;20133;-75
2023/05/17 08:59:00;;;;;;;7.82;7.20;;;;;;;;;;4973636;28;20029;-77
2023/05/17 09:01:27;;;;;;;8.00;7.22;;;;;;;;;;4969165;28;20027;-75
2023/05/17 09:03:52;;;;;;;10.65;7.65;;;;;;;;;;4973221;28;20040;-76
2023/05/17 09:06:21;;;;;;;5.97;5.45;;;;;;;;;;4970117;28;20365;-77
2023/05/17 09:08:46;;;;;;;5.63;5.05;;;;;;;;;;4966945;28;20043;-76
2023/05/17 09:11:12;;;;;;;6.43;5.40;;;;;;;;;;4963044;28;20387;-76
2023/05/17 09:13:37;;;;;;;4.68;4.32;;;;;;;;;;4972210;28;20042;-76
2023/05/17 09:16:11;;;;;;;5.00;4.45;;;;;;;;;;4969794;28;20476;-76
2023/05/17 09:18:36;;;;;;;5.13;4.60;;;;;;;;;;4973594;28;20107;-77
2023/05/17 09:21:05;;;;;;;5.78;5.28;;;;;;;;;;4955852;28;20460;-74
2023/05/17 09:23:33;;;;;;;6.68;5.53;;;;;;;;;;4962823;28;20034;-79
2023/05/17 09:26:06;;;;;;;8.30;5.67;;;;;;;;;;4970333;28;20047;-77
2023/05/17 09:28:41;;;;;;;8.68;5.00;;;;;;;;;;4971955;28;20031;-77
2023/05/17 09:31:12;;;;;;;4.90;4.28;;;;;;;;;;4968973;28;20054;-75
2023/05/17 09:33:44;;;;;;;4.85;4.35;;;;;;;;;;4970512;28;20026;-76
2023/05/17 09:36:19;;;;;;;5.03;4.18;;;;;;;;;;4952294;28;20038;-74
2023/05/17 09:38:55;;;;;;;5.53;3.90;;;;;;;;;;4957814;28;20126;-73
2023/05/17 09:41:21;;;;;;;4.72;4.18;;;;;;;;;;4957802;28;20054;-75
2023/05/17 09:43:47;;;;;;;4.45;3.97;;;;;;;;;;4970555;28;20022;-75
2023/05/17 09:46:14;;;;;;;6.13;4.32;;;;;;;;;;4966190;28;20486;-75
2023/05/17 09:48:39;;;;;;;6.03;4.95;;;;;;;;;;4963077;28;20030;-75
2023/05/17 09:51:05;;;;;;;5.60;4.75;;;;;;;;;;4962753;28;20045;-74
2023/05/17 09:53:32;;;;;;;5.97;4.75;;;;;;;;;;4959710;28;20113;-75
2023/05/17 09:56:01;;;;;;;12.30;4.75;;;;;;;;;;4966013;28;20940;-75
2023/05/17 09:58:30;;;;;;;6.15;5.43;;;;;;;;;;4957568;28;20034;-76
2023/05/17 10:00:57;;;;;;;6.38;5.28;;;;;;;;;;4972337;28;20036;-77
2023/05/17 10:03:24;;;;;;;7.07;4.93;;;;;;;;;;4972660;28;20035;-74
2023/05/17 10:05:51;;;;;;;6.32;5.35;;;;;;;;;;4970945;28;20520;-75
2023/05/17 10:08:19;;;;;;;5.65;5.05;;;;;;;;;;4963321;28;20033;-76
2023/05/17 10:10:45;;;;;;;6.50;5.38;;;;;;;;;;4972817;28;20037;-76
2023/05/17 10:13:12;;;;;;;6.82;5.35;;;;;;;;;;4970415;28;20032;-76
2023/05/17 10:15:39;;;;;;;5.82;4.82;;;;;;;;;;4972676;28;20019;-74
2023/05/17 10:18:06;;;;;;;5.72;5.13;;;;;;;;;;4972098;28;20017;-75
2023/05/17 10:20:32;;;;;;;6.78;5.47;;;;;;;;;;4971166;28;20023;-75
2023/05/17 10:22:59;;;;;;;7.47;5.32;;;;;;;;;;4968762;28;20030;-76
2023/05/17 10:25:24;;;;;;;8.60;6.15;;;;;;;;;;4971615;28;20839;-76
2023/05/17 10:27:49;;;;;;;8.57;6.18;;;;;;;;;;4972591;28;20026;-78
2023/05/17 10:30:17;;;;;;;7.38;6.68;;;;;;;;;;4973432;28;20365;-75
2023/05/17 10:32:43;;;;;;;9.80;6.90;;;;;;;;;;4967026;28;20026;-75
2023/05/17 10:35:09;;;;;;;7.72;6.80;;;;;;;;;;4968406;28;20066;-76
2023/05/17 10:37:34;;;;;;;7.72;7.03;;;;;;;;;;4970068;28;20066;-75
2023/05/17 10:40:00;;;;;;;8.90;7.22;;;;;;;;;;4973813;28;20045;-76
2023/05/17 10:42:26;;;;;;;8.02;7.03;;;;;;;;;;4969066;28;20054;-76
2023/05/17 10:44:52;;;;;;;10.30;7.85;;;;;;;;;;4971800;28;20034;-75
2023/05/17 10:47:17;;;;;;;10.52;8.63;;;;;;;;;;4970496;28;20034;-75
2023/05/17 10:49:46;;;;;;;10.50;9.32;;;;;;;;;;4981820;28;20019;-76
2023/05/17 10:52:12;;;;;;;14.35;10.57;;;;;;;;;;4972643;28;20064;-76
2023/05/17 10:54:41;;;;;;;13.32;11.30;;;;;;;;;;4972292;28;20038;-76
2023/05/17 10:57:07;;;;;;;13.05;11.65;;;;;;;;;;4969433;28;20030;-76
2023/05/17 10:59:32;;;;;;;16.95;11.70;;;;;;;;;;4970583;28;20107;-76
2023/05/17 11:02:07;;;;;;;14.13;11.02;;;;;;;;;;4968675;28;20053;-77
2023/05/17 11:04:35;;;;;;;22.55;12.10;;;;;;;;;;4973952;28;20392;-78
2023/05/17 11:07:15;;;;;;;22.02;14.73;;;;;;;;;;4968583;28;20054;-78
2023/05/17 11:09:41;;;;;;;21.35;16.63;;;;;;;;;;4973056;28;20030;-78
2023/05/17 11:12:08;;;;;;;19.30;17.20;;;;;;;;;;4970464;28;20026;-77
2023/05/17 11:14:45;;;;;;;20.35;17.77;;;;;;;;;;4970557;28;20026;-77
2023/05/17 11:17:14;;;;;;;20.63;18.48;;;;;;;;;;4967977;28;20019;-77
2023/05/17 11:19:58;;;;;;;23.52;18.75;;;;;;;;;;4973931;28;20026;-77
2023/05/17 11:22:24;;;;;;;22.15;19.80;;;;;;;;;;4969146;28;20035;-76
2023/05/17 11:24:50;;;;;;;22.85;20.42;;;;;;;;;;4966798;28;20498;-76
2023/05/17 11:27:17;;;;;;;24.83;21.55;;;;;;;;;;4961652;28;20034;-76
2023/05/17 11:29:46;;;;;;;23.83;21.35;;;;;;;;;;4975232;28;20451;-76
2023/05/17 11:32:11;;;;;;;26.13;22.43;;;;;;;;;;4966494;28;20035;-77
2023/05/17 11:34:37;;;;;;;26.27;23.63;;;;;;;;;;4974921;28;20030;-78
2023/05/17 11:37:03;;;;;;;28.70;25.67;;;;;;;;;;4969692;28;20466;-77
2023/05/17 11:39:29;;;;;;;28.48;24.95;;;;;;;;;;4973747;28;20488;-78
2023/05/17 11:41:55;;;;;;;26.80;24.23;;;;;;;;;;4970710;28;20078;-78
2023/05/17 11:44:24;;;;;;;25.63;23.23;;;;;;;;;;4972175;28;20107;-77
2023/05/17 11:46:50;;;;;;;25.05;22.40;;;;;;;;;;4967806;28;20035;-80
2023/05/17 11:49:15;;;;;;;24.77;22.20;;;;;;;;;;4973266;28;20055;-78
2023/05/17 11:51:41;;;;;;;25.77;22.95;;;;;;;;;;4969616;28;20023;-77
2023/05/17 11:54:08;;;;;;;25.52;23.05;;;;;;;;;;4975129;28;20449;-77
2023/05/17 11:56:37;;;;;;;25.73;23.23;;;;;;;;;;4971042;28;20036;-77
2023/05/17 11:59:03;;;;;;;27.70;24.75;;;;;;;;;;4974458;28;20033;-77
2023/05/17 12:01:40;;;;;;;24.70;22.15;;;;;;;;;;4971831;28;20035;-78
2023/05/17 12:04:05;;;;;;;27.63;24.73;;;;;;;;;;4976475;28;20042;-77
2023/05/17 12:06:33;;;;;;;25.98;23.13;;;;;;;;;;4972300;28;20114;-78
2023/05/17 12:08:59;;;;;;;26.92;24.02;;;;;;;;;;4964228;28;20030;-77
2023/05/17 12:11:24;;;;;;;30.02;26.65;;;;;;;;;;4971391;28;20327;-77
2023/05/17 12:13:50;;;;;;;27.42;24.55;;;;;;;;;;4966016;28;20034;-77
2023/05/17 12:16:19;;;;;;;25.67;23.23;;;;;;;;;;4972700;28;20054;-75
2023/05/17 12:18:49;;;;;;;27.40;24.60;;;;;;;;;;4968422;28;20029;-76
2023/05/17 12:21:15;;;;;;;28.30;25.50;;;;;;;;;;4972551;28;20030;-76
2023/05/17 12:23:45;;;;;;;24.77;22.23;;;;;;;;;;4973790;28;20526;-76
2023/05/17 12:26:17;;;;;;;26.90;24.00;;;;;;;;;;4970918;28;20109;-76
2023/05/17 12:29:03;;;;;;;22.90;20.45;;;;;;;;;;4975530;28;20029;-75
2023/05/17 12:31:47;;;;;;;26.63;23.70;;;;;;;;;;4969764;28;20050;-77
2023/05/17 12:34:15;;;;;;;24.75;22.35;;;;;;;;;;4976012;28;20049;-76
2023/05/17 12:36:41;;;;;;;25.70;23.23;;;;;;;;;;4972994;28;20022;-76
2023/05/17 12:39:08;;;;;;;24.00;21.80;;;;;;;;;;4977585;28;20026;-78
2023/05/17 12:41:34;;;;;;;23.42;20.58;;;;;;;;;;4967525;28;20054;-76
2023/05/17 12:44:00;;;;;;;24.50;22.00;;;;;;;;;;4975365;28;20030;-78
2023/05/17 12:46:26;;;;;;;22.17;19.90;;;;;;;;;;4971232;28;20073;-76
2023/05/17 12:48:52;;;;;;;22.02;20.02;;;;;;;;;;4962613;28;20045;-76
2023/05/17 12:51:22;;;;;;;23.10;19.77;;;;;;;;;;4955182;28;20027;-76
2023/05/17 12:53:51;;;;;;;22.05;19.90;;;;;;;;;;4958684;28;20025;-78
2023/05/17 12:56:18;;;;;;;23.02;19.10;;;;;;;;;;4961240;28;20030;-79
2023/05/17 12:59:02;;;;;;;19.83;18.10;;;;;;;;;;4960148;28;20027;-76
2023/05/17 13:01:31;;;;;;;22.30;18.83;;;;;;;;;;4957401;28;20027;-79
2023/05/17 13:03:56;;;;;;;21.20;19.00;;;;;;;;;;4958695;28;20450;-78
2023/05/17 13:06:22;;;;;;;21.70;19.63;;;;;;;;;;4955966;28;20046;-78
2023/05/17 13:08:56;;;;;;;22.70;20.30;;;;;;;;;;4962798;28;20437;-77
2023/05/17 13:11:24;;;;;;;21.23;19.02;;;;;;;;;;4970662;28;20023;-77
2023/05/17 13:13:49;;;;;;;22.17;19.85;;;;;;;;;;4963494;28;20095;-77
2023/05/17 13:16:14;;;;;;;26.83;23.38;;;;;;;;;;4957449;28;20026;-77
2023/05/17 13:18:46;;;;;;;23.42;20.20;;;;;;;;;;4974455;28;20026;-77
2023/05/17 13:21:12;;;;;;;27.80;24.85;;;;;;;;;;4960647;28;20022;-77
2023/05/17 13:23:45;;;;;;;24.30;21.90;;;;;;;;;;4959699;28;20037;-77
2023/05/17 13:26:11;;;;;;;22.55;20.33;;;;;;;;;;4962683;28;20646;-78
2023/05/17 13:28:37;;;;;;;26.17;22.75;;;;;;;;;;4960232;28;20045;-78
2023/05/17 13:31:02;;;;;;;27.70;24.45;;;;;;;;;;4966149;28;20469;-77
2023/05/17 13:33:27;;;;;;;26.83;23.52;;;;;;;;;;4970614;28;20042;-76
2023/05/17 13:35:53;;;;;;;27.25;24.60;;;;;;;;;;4958105;28;20069;-77
2023/05/17 13:38:18;;;;;;;26.20;23.48;;;;;;;;;;4970012;28;20027;-76
2023/05/17 13:40:43;;;;;;;26.95;23.95;;;;;;;;;;4961303;28;20383;-76
2023/05/17 13:43:09;;;;;;;25.55;22.92;;;;;;;;;;4957014;28;20084;-78
2023/05/17 13:45:35;;;;;;;32.65;29.10;;;;;;;;;;4958611;28;20112;-75
2023/05/17 13:48:00;;;;;;;31.67;28.33;;;;;;;;;;4958404;28;20034;-78
2023/05/17 13:50:26;;;;;;;33.38;30.08;;;;;;;;;;4959873;28;20037;-74
2023/05/17 13:52:52;;;;;;;30.42;27.38;;;;;;;;;;4955666;28;20091;-76
2023/05/17 13:55:17;;;;;;;29.92;25.67;;;;;;;;;;4961268;28;20467;-78
2023/05/17 13:57:44;;;;;;;32.70;29.38;;;;;;;;;;4952023;28;20335;-77
2023/05/17 14:00:10;;;;;;;28.10;25.00;;;;;;;;;;4955740;28;20335;-74
2023/05/17 14:02:35;;;;;;;28.60;25.60;;;;;;;;;;4947488;28;20034;-81
2023/05/17 14:05:01;;;;;;;26.40;23.85;;;;;;;;;;4960401;28;20065;-77
2023/05/17 14:07:26;;;;;;;28.73;25.80;;;;;;;;;;4954792;28;20110;-79
2023/05/17 14:09:51;;;;;;;26.95;24.35;;;;;;;;;;4954288;28;20052;-77
2023/05/17 14:12:17;;;;;;;29.65;25.98;;;;;;;;;;4953660;28;20031;-75
2023/05/17 14:14:42;;;;;;;28.90;26.13;;;;;;;;;;4960670;28;20080;-79
2023/05/17 14:17:07;;;;;;;24.67;22.08;;;;;;;;;;4963834;28;20026;-79
2023/05/17 14:19:33;;;;;;;26.83;24.13;;;;;;;;;;4962459;28;20030;-78